sensor_id;sensor_type;location;lat;lon;timestamp;P1;durP1;ratioP1;P2;durP2;ratioP2
18793;SDS011;29610;49.022;12.114;2022-08-19T00:01:57;52.87;;;32.97;;
18793;SDS011;29610;49.022;12.114;2022-08-19T00:04:27;50.73;;;33.90;;
18793;SDS011;29610;49.022;12.114;2022-08-19T00:07:04;57.93;;;35.40;;
18793;SDS011;29610;49.022;12.114;2022-08-19T00:09:34;57.43;;;36.40;;
18793;SDS011;29610;49.022;12.114;2022-08-19T00:12:03;62.60;;;37.67;;
18793;SDS011;29610;49.022;12.114;2022-08-19T00:14:32;59.40;;;38.00;;
18793;SDS011;29610;49.022;12.114;2022-08-19T00:17:01;60.30;;;39.23;;
18793;SDS011;29610;49.022;12.114;2022-08-19T00:19:30;59.47;;;37.70;;
18793;SDS011;29610;49.022;12.114;2022-08-19T00:21:59;58.60;;;39.43;;
18793;SDS011;29610;49.022;12.114;2022-08-19T00:24:31;66.90;;;42.60;;
18793;SDS011;29610;49.022;12.114;2022-08-19T00:27:01;58.27;;;39.07;;
18793;SDS011;29610;49.022;12.114;2022-08-19T00:29:49;59.17;;;40.60;;
18793;SDS011;29610;49.022;12.114;2022-08-19T00:32:18;63.50;;;40.73;;
18793;SDS011;29610;49.022;12.114;2022-08-19T00:34:49;67.77;;;41.67;;
18793;SDS011;29610;49.022;12.114;2022-08-19T00:37:20;62.40;;;40.90;;
18793;SDS011;29610;49.022;12.114;2022-08-19T00:39:54;61.57;;;41.40;;
18793;SDS011;29610;49.022;12.114;2022-08-19T00:42:25;65.97;;;41.27;;
18793;SDS011;29610;49.022;12.114;2022-08-19T00:44:58;67.10;;;40.80;;
18793;SDS011;29610;49.022;12.114;2022-08-19T00:47:27;63.40;;;43.00;;
18793;SDS011;29610;49.022;12.114;2022-08-19T00:49:57;62.47;;;42.30;;
18793;SDS011;29610;49.022;12.114;2022-08-19T00:52:28;61.60;;;40.77;;
18793;SDS011;29610;49.022;12.114;2022-08-19T00:59:29;71.13;;;42.97;;
18793;SDS011;29610;49.022;12.114;2022-08-19T01:02:22;68.20;;;42.10;;
18793;SDS011;29610;49.022;12.114;2022-08-19T01:04:54;61.70;;;42.33;;
18793;SDS011;29610;49.022;12.114;2022-08-19T01:07:30;68.03;;;45.80;;
18793;SDS011;29610;49.022;12.114;2022-08-19T01:10:04;62.83;;;40.73;;
18793;SDS011;29610;49.022;12.114;2022-08-19T01:12:41;63.03;;;42.20;;
18793;SDS011;29610;49.022;12.114;2022-08-19T01:15:11;66.27;;;42.53;;
18793;SDS011;29610;49.022;12.114;2022-08-19T01:17:46;62.33;;;41.87;;
18793;SDS011;29610;49.022;12.114;2022-08-19T01:20:19;62.43;;;43.00;;
18793;SDS011;29610;49.022;12.114;2022-08-19T01:22:57;63.90;;;42.37;;
18793;SDS011;29610;49.022;12.114;2022-08-19T01:25:29;62.53;;;41.33;;
18793;SDS011;29610;49.022;12.114;2022-08-19T01:28:04;64.87;;;39.53;;
18793;SDS011;29610;49.022;12.114;2022-08-19T01:30:39;63.10;;;40.37;;
18793;SDS011;29610;49.022;12.114;2022-08-19T01:33:10;61.93;;;40.53;;
18793;SDS011;29610;49.022;12.114;2022-08-19T01:35:40;56.67;;;39.30;;
18793;SDS011;29610;49.022;12.114;2022-08-19T01:38:19;60.10;;;39.97;;
18793;SDS011;29610;49.022;12.114;2022-08-19T01:40:52;61.83;;;39.43;;
18793;SDS011;29610;49.022;12.114;2022-08-19T01:43:21;60.83;;;38.67;;
18793;SDS011;29610;49.022;12.114;2022-08-19T01:45:50;61.00;;;41.00;;
18793;SDS011;29610;49.022;12.114;2022-08-19T01:48:19;61.90;;;42.03;;
18793;SDS011;29610;49.022;12.114;2022-08-19T01:50:49;63.13;;;40.50;;
18793;SDS011;29610;49.022;12.114;2022-08-19T01:53:19;59.90;;;41.50;;
18793;SDS011;29610;49.022;12.114;2022-08-19T01:55:52;59.93;;;41.47;;
18793;SDS011;29610;49.022;12.114;2022-08-19T01:58:23;61.87;;;40.57;;
18793;SDS011;29610;49.022;12.114;2022-08-19T02:01:06;63.30;;;42.73;;
18793;SDS011;29610;49.022;12.114;2022-08-19T02:03:36;58.93;;;40.30;;
18793;SDS011;29610;49.022;12.114;2022-08-19T02:06:05;69.03;;;43.20;;
18793;SDS011;29610;49.022;12.114;2022-08-19T02:08:36;60.33;;;39.60;;
18793;SDS011;29610;49.022;12.114;2022-08-19T02:11:07;61.40;;;39.73;;
18793;SDS011;29610;49.022;12.114;2022-08-19T02:13:38;60.70;;;41.43;;
18793;SDS011;29610;49.022;12.114;2022-08-19T02:16:07;63.07;;;39.17;;
18793;SDS011;29610;49.022;12.114;2022-08-19T02:18:38;62.07;;;40.20;;
18793;SDS011;29610;49.022;12.114;2022-08-19T02:21:09;59.07;;;38.83;;
18793;SDS011;29610;49.022;12.114;2022-08-19T02:23:51;59.17;;;37.97;;
18793;SDS011;29610;49.022;12.114;2022-08-19T02:26:26;62.33;;;39.10;;
18793;SDS011;29610;49.022;12.114;2022-08-19T02:28:55;68.87;;;40.83;;
18793;SDS011;29610;49.022;12.114;2022-08-19T02:31:25;64.20;;;41.43;;
18793;SDS011;29610;49.022;12.114;2022-08-19T02:33:58;64.00;;;41.60;;
18793;SDS011;29610;49.022;12.114;2022-08-19T02:36:36;59.73;;;38.37;;
18793;SDS011;29610;49.022;12.114;2022-08-19T02:39:20;56.83;;;39.37;;
18793;SDS011;29610;49.022;12.114;2022-08-19T02:41:47;63.13;;;38.83;;
18793;SDS011;29610;49.022;12.114;2022-08-19T02:44:18;59.53;;;39.53;;
18793;SDS011;29610;49.022;12.114;2022-08-19T02:47:00;57.13;;;37.20;;
18793;SDS011;29610;49.022;12.114;2022-08-19T02:49:30;58.73;;;37.27;;
18793;SDS011;29610;49.022;12.114;2022-08-19T02:52:03;64.07;;;35.57;;
18793;SDS011;29610;49.022;12.114;2022-08-19T02:54:34;63.17;;;38.53;;
18793;SDS011;29610;49.022;12.114;2022-08-19T02:57:03;56.20;;;37.27;;
18793;SDS011;29610;49.022;12.114;2022-08-19T03:00:03;55.60;;;37.03;;
18793;SDS011;29610;49.022;12.114;2022-08-19T03:02:35;55.10;;;36.80;;
18793;SDS011;29610;49.022;12.114;2022-08-19T03:05:04;57.17;;;37.27;;
18793;SDS011;29610;49.022;12.114;2022-08-19T03:07:38;58.20;;;36.67;;
18793;SDS011;29610;49.022;12.114;2022-08-19T03:10:08;61.27;;;38.10;;
18793;SDS011;29610;49.022;12.114;2022-08-19T03:12:38;54.77;;;36.57;;
18793;SDS011;29610;49.022;12.114;2022-08-19T03:15:19;54.87;;;35.33;;
18793;SDS011;29610;49.022;12.114;2022-08-19T03:17:51;53.90;;;34.20;;
18793;SDS011;29610;49.022;12.114;2022-08-19T03:20:23;48.00;;;31.70;;
18793;SDS011;29610;49.022;12.114;2022-08-19T03:22:53;54.90;;;36.20;;
18793;SDS011;29610;49.022;12.114;2022-08-19T03:25:24;57.00;;;34.70;;
18793;SDS011;29610;49.022;12.114;2022-08-19T03:27:53;50.73;;;33.90;;
18793;SDS011;29610;49.022;12.114;2022-08-19T03:30:21;52.37;;;32.20;;
18793;SDS011;29610;49.022;12.114;2022-08-19T03:32:54;46.90;;;29.80;;
18793;SDS011;29610;49.022;12.114;2022-08-19T03:35:31;50.23;;;31.30;;
18793;SDS011;29610;49.022;12.114;2022-08-19T03:38:06;51.00;;;33.03;;
18793;SDS011;29610;49.022;12.114;2022-08-19T03:40:37;50.60;;;32.53;;
18793;SDS011;29610;49.022;12.114;2022-08-19T03:43:05;50.73;;;33.83;;
18793;SDS011;29610;49.022;12.114;2022-08-19T03:45:34;49.77;;;33.13;;
18793;SDS011;29610;49.022;12.114;2022-08-19T03:48:02;47.30;;;30.50;;
18793;SDS011;29610;49.022;12.114;2022-08-19T03:50:31;50.73;;;33.57;;
18793;SDS011;29610;49.022;12.114;2022-08-19T03:52:59;55.60;;;33.77;;
18793;SDS011;29610;49.022;12.114;2022-08-19T03:55:28;48.20;;;31.33;;
18793;SDS011;29610;49.022;12.114;2022-08-19T03:57:58;46.13;;;31.43;;
18793;SDS011;29610;49.022;12.114;2022-08-19T04:00:26;49.70;;;32.23;;
18793;SDS011;29610;49.022;12.114;2022-08-19T04:02:55;48.57;;;29.77;;
18793;SDS011;29610;49.022;12.114;2022-08-19T04:05:26;55.87;;;32.43;;
18793;SDS011;29610;49.022;12.114;2022-08-19T04:07:56;52.00;;;32.47;;
18793;SDS011;29610;49.022;12.114;2022-08-19T04:10:25;49.57;;;31.77;;
18793;SDS011;29610;49.022;12.114;2022-08-19T04:12:54;51.87;;;32.93;;
18793;SDS011;29610;49.022;12.114;2022-08-19T04:15:24;45.43;;;30.17;;
18793;SDS011;29610;49.022;12.114;2022-08-19T04:17:58;42.80;;;28.13;;
18793;SDS011;29610;49.022;12.114;2022-08-19T04:20:26;46.67;;;29.73;;
18793;SDS011;29610;49.022;12.114;2022-08-19T04:22:56;48.80;;;31.80;;
18793;SDS011;29610;49.022;12.114;2022-08-19T04:25:25;48.80;;;32.73;;
18793;SDS011;29610;49.022;12.114;2022-08-19T04:27:53;49.07;;;32.87;;
18793;SDS011;29610;49.022;12.114;2022-08-19T04:30:22;50.97;;;31.87;;
18793;SDS011;29610;49.022;12.114;2022-08-19T04:32:52;51.60;;;33.27;;
18793;SDS011;29610;49.022;12.114;2022-08-19T04:35:20;48.10;;;30.93;;
18793;SDS011;29610;49.022;12.114;2022-08-19T04:37:50;55.87;;;32.80;;
18793;SDS011;29610;49.022;12.114;2022-08-19T04:40:19;56.67;;;31.93;;
18793;SDS011;29610;49.022;12.114;2022-08-19T04:43:05;52.17;;;34.10;;
18793;SDS011;29610;49.022;12.114;2022-08-19T04:45:33;49.90;;;33.60;;
18793;SDS011;29610;49.022;12.114;2022-08-19T04:48:10;50.83;;;31.53;;
18793;SDS011;29610;49.022;12.114;2022-08-19T04:50:53;45.97;;;32.23;;
18793;SDS011;29610;49.022;12.114;2022-08-19T04:53:25;52.63;;;32.90;;
18793;SDS011;29610;49.022;12.114;2022-08-19T04:56:04;48.93;;;32.00;;
18793;SDS011;29610;49.022;12.114;2022-08-19T04:58:36;49.20;;;32.70;;
18793;SDS011;29610;49.022;12.114;2022-08-19T05:01:09;42.70;;;30.17;;
18793;SDS011;29610;49.022;12.114;2022-08-19T05:03:41;50.13;;;31.10;;
18793;SDS011;29610;49.022;12.114;2022-08-19T05:06:10;45.93;;;29.40;;
18793;SDS011;29610;49.022;12.114;2022-08-19T05:08:42;46.00;;;32.63;;
18793;SDS011;29610;49.022;12.114;2022-08-19T05:11:12;47.30;;;31.73;;
18793;SDS011;29610;49.022;12.114;2022-08-19T05:13:43;48.17;;;30.77;;
18793;SDS011;29610;49.022;12.114;2022-08-19T05:16:15;39.93;;;27.60;;
18793;SDS011;29610;49.022;12.114;2022-08-19T05:18:49;42.27;;;26.30;;
18793;SDS011;29610;49.022;12.114;2022-08-19T05:21:39;38.97;;;25.77;;
18793;SDS011;29610;49.022;12.114;2022-08-19T05:24:26;41.03;;;25.03;;
18793;SDS011;29610;49.022;12.114;2022-08-19T05:26:57;47.73;;;27.03;;
18793;SDS011;29610;49.022;12.114;2022-08-19T05:29:26;40.70;;;26.13;;
18793;SDS011;29610;49.022;12.114;2022-08-19T05:32:02;44.20;;;28.40;;
18793;SDS011;29610;49.022;12.114;2022-08-19T05:34:36;39.47;;;24.73;;
18793;SDS011;29610;49.022;12.114;2022-08-19T05:37:06;40.83;;;24.60;;
18793;SDS011;29610;49.022;12.114;2022-08-19T05:39:35;37.23;;;25.07;;
18793;SDS011;29610;49.022;12.114;2022-08-19T05:42:07;43.10;;;26.57;;
18793;SDS011;29610;49.022;12.114;2022-08-19T05:44:40;40.60;;;25.40;;
18793;SDS011;29610;49.022;12.114;2022-08-19T05:47:12;42.93;;;24.87;;
18793;SDS011;29610;49.022;12.114;2022-08-19T05:49:43;42.93;;;26.33;;
18793;SDS011;29610;49.022;12.114;2022-08-19T05:52:12;41.70;;;28.00;;
18793;SDS011;29610;49.022;12.114;2022-08-19T05:54:45;41.27;;;25.80;;
18793;SDS011;29610;49.022;12.114;2022-08-19T05:57:17;40.17;;;25.27;;
18793;SDS011;29610;49.022;12.114;2022-08-19T05:59:46;39.13;;;25.90;;
18793;SDS011;29610;49.022;12.114;2022-08-19T06:02:23;43.73;;;25.50;;
18793;SDS011;29610;49.022;12.114;2022-08-19T06:04:54;39.70;;;24.87;;
18793;SDS011;29610;49.022;12.114;2022-08-19T06:07:22;44.50;;;28.03;;
18793;SDS011;29610;49.022;12.114;2022-08-19T06:09:51;38.37;;;26.17;;
18793;SDS011;29610;49.022;12.114;2022-08-19T06:12:26;39.43;;;26.17;;
18793;SDS011;29610;49.022;12.114;2022-08-19T06:15:00;40.83;;;26.07;;
18793;SDS011;29610;49.022;12.114;2022-08-19T06:17:33;42.97;;;26.60;;
18793;SDS011;29610;49.022;12.114;2022-08-19T06:20:04;37.93;;;24.37;;
18793;SDS011;29610;49.022;12.114;2022-08-19T06:22:39;41.10;;;26.33;;
18793;SDS011;29610;49.022;12.114;2022-08-19T06:25:11;41.93;;;23.87;;
18793;SDS011;29610;49.022;12.114;2022-08-19T06:27:41;47.33;;;24.20;;
18793;SDS011;29610;49.022;12.114;2022-08-19T06:30:30;34.63;;;22.57;;
18793;SDS011;29610;49.022;12.114;2022-08-19T06:33:03;39.33;;;23.57;;
18793;SDS011;29610;49.022;12.114;2022-08-19T06:35:39;35.40;;;24.00;;
18793;SDS011;29610;49.022;12.114;2022-08-19T06:38:08;41.67;;;23.70;;
18793;SDS011;29610;49.022;12.114;2022-08-19T06:40:37;38.53;;;24.93;;
18793;SDS011;29610;49.022;12.114;2022-08-19T06:43:05;40.07;;;24.50;;
18793;SDS011;29610;49.022;12.114;2022-08-19T06:45:36;35.60;;;22.80;;
18793;SDS011;29610;49.022;12.114;2022-08-19T06:48:05;36.53;;;22.03;;
18793;SDS011;29610;49.022;12.114;2022-08-19T06:50:38;37.83;;;22.93;;
18793;SDS011;29610;49.022;12.114;2022-08-19T06:53:07;38.13;;;22.00;;
18793;SDS011;29610;49.022;12.114;2022-08-19T06:55:35;33.80;;;21.63;;
18793;SDS011;29610;49.022;12.114;2022-08-19T06:58:10;34.13;;;20.40;;
18793;SDS011;29610;49.022;12.114;2022-08-19T07:00:47;36.57;;;20.47;;
18793;SDS011;29610;49.022;12.114;2022-08-19T07:03:18;35.60;;;22.10;;
18793;SDS011;29610;49.022;12.114;2022-08-19T07:05:51;34.87;;;21.20;;
18793;SDS011;29610;49.022;12.114;2022-08-19T07:08:20;37.70;;;22.90;;
18793;SDS011;29610;49.022;12.114;2022-08-19T07:10:54;36.40;;;21.93;;
18793;SDS011;29610;49.022;12.114;2022-08-19T07:13:29;37.83;;;22.10;;
18793;SDS011;29610;49.022;12.114;2022-08-19T07:16:05;42.70;;;24.50;;
18793;SDS011;29610;49.022;12.114;2022-08-19T07:18:38;37.10;;;22.47;;
18793;SDS011;29610;49.022;12.114;2022-08-19T07:21:12;40.73;;;24.20;;
18793;SDS011;29610;49.022;12.114;2022-08-19T07:23:55;36.83;;;22.03;;
18793;SDS011;29610;49.022;12.114;2022-08-19T07:26:33;41.27;;;25.70;;
18793;SDS011;29610;49.022;12.114;2022-08-19T07:29:11;37.50;;;25.20;;
18793;SDS011;29610;49.022;12.114;2022-08-19T07:31:45;38.87;;;24.83;;
18793;SDS011;29610;49.022;12.114;2022-08-19T07:34:17;37.17;;;23.10;;
18793;SDS011;29610;49.022;12.114;2022-08-19T07:36:53;37.50;;;23.33;;
18793;SDS011;29610;49.022;12.114;2022-08-19T07:39:29;38.77;;;22.70;;
18793;SDS011;29610;49.022;12.114;2022-08-19T07:42:03;35.10;;;20.93;;
18793;SDS011;29610;49.022;12.114;2022-08-19T07:44:39;35.03;;;20.10;;
18793;SDS011;29610;49.022;12.114;2022-08-19T07:47:16;36.13;;;23.20;;
18793;SDS011;29610;49.022;12.114;2022-08-19T07:50:07;33.47;;;21.40;;
18793;SDS011;29610;49.022;12.114;2022-08-19T07:52:40;35.37;;;21.57;;
18793;SDS011;29610;49.022;12.114;2022-08-19T07:55:14;34.93;;;20.93;;
18793;SDS011;29610;49.022;12.114;2022-08-19T07:58:09;35.67;;;21.20;;
18793;SDS011;29610;49.022;12.114;2022-08-19T08:00:42;34.93;;;21.27;;
18793;SDS011;29610;49.022;12.114;2022-08-19T08:03:19;36.50;;;22.20;;
18793;SDS011;29610;49.022;12.114;2022-08-19T08:06:11;40.43;;;23.57;;
18793;SDS011;29610;49.022;12.114;2022-08-19T08:09:00;37.10;;;22.13;;
18793;SDS011;29610;49.022;12.114;2022-08-19T08:11:43;35.20;;;20.83;;
18793;SDS011;29610;49.022;12.114;2022-08-19T08:14:17;32.77;;;21.40;;
18793;SDS011;29610;49.022;12.114;2022-08-19T08:16:55;37.03;;;20.30;;
18793;SDS011;29610;49.022;12.114;2022-08-19T08:19:25;32.73;;;18.97;;
18793;SDS011;29610;49.022;12.114;2022-08-19T08:21:56;34.17;;;20.03;;
18793;SDS011;29610;49.022;12.114;2022-08-19T08:24:29;32.43;;;19.13;;
18793;SDS011;29610;49.022;12.114;2022-08-19T08:26:59;30.43;;;17.60;;
18793;SDS011;29610;49.022;12.114;2022-08-19T08:29:36;30.50;;;16.50;;
18793;SDS011;29610;49.022;12.114;2022-08-19T08:32:07;28.23;;;16.20;;
18793;SDS011;29610;49.022;12.114;2022-08-19T08:34:40;27.87;;;16.30;;
18793;SDS011;29610;49.022;12.114;2022-08-19T08:37:09;28.97;;;16.00;;
18793;SDS011;29610;49.022;12.114;2022-08-19T08:39:43;26.03;;;15.23;;
18793;SDS011;29610;49.022;12.114;2022-08-19T08:42:14;27.20;;;15.57;;
18793;SDS011;29610;49.022;12.114;2022-08-19T08:44:53;27.67;;;15.20;;
18793;SDS011;29610;49.022;12.114;2022-08-19T08:47:28;32.37;;;14.97;;
18793;SDS011;29610;49.022;12.114;2022-08-19T08:50:04;27.00;;;14.23;;
18793;SDS011;29610;49.022;12.114;2022-08-19T08:52:41;26.40;;;13.87;;
18793;SDS011;29610;49.022;12.114;2022-08-19T08:55:16;29.33;;;15.40;;
18793;SDS011;29610;49.022;12.114;2022-08-19T08:57:51;27.10;;;15.33;;
18793;SDS011;29610;49.022;12.114;2022-08-19T09:00:27;26.60;;;15.10;;
18793;SDS011;29610;49.022;12.114;2022-08-19T09:03:01;25.70;;;13.70;;
18793;SDS011;29610;49.022;12.114;2022-08-19T09:05:36;35.83;;;14.37;;
18793;SDS011;29610;49.022;12.114;2022-08-19T09:08:16;23.27;;;12.57;;
18793;SDS011;29610;49.022;12.114;2022-08-19T09:11:06;28.87;;;16.33;;
18793;SDS011;29610;49.022;12.114;2022-08-19T09:14:04;25.20;;;12.93;;
18793;SDS011;29610;49.022;12.114;2022-08-19T09:17:02;29.80;;;15.40;;
18793;SDS011;29610;49.022;12.114;2022-08-19T09:19:34;27.30;;;15.47;;
18793;SDS011;29610;49.022;12.114;2022-08-19T09:22:14;32.33;;;16.90;;
18793;SDS011;29610;49.022;12.114;2022-08-19T09:24:51;27.10;;;16.13;;
18793;SDS011;29610;49.022;12.114;2022-08-19T09:27:23;29.53;;;16.00;;
18793;SDS011;29610;49.022;12.114;2022-08-19T09:30:10;28.30;;;14.10;;
18793;SDS011;29610;49.022;12.114;2022-08-19T09:32:44;33.27;;;14.97;;
18793;SDS011;29610;49.022;12.114;2022-08-19T09:35:18;27.37;;;16.03;;
18793;SDS011;29610;49.022;12.114;2022-08-19T09:37:50;32.13;;;14.60;;
18793;SDS011;29610;49.022;12.114;2022-08-19T09:40:25;27.00;;;15.27;;
18793;SDS011;29610;49.022;12.114;2022-08-19T09:43:04;27.20;;;15.50;;
18793;SDS011;29610;49.022;12.114;2022-08-19T09:45:38;26.03;;;14.70;;
18793;SDS011;29610;49.022;12.114;2022-08-19T09:48:07;26.20;;;14.17;;
18793;SDS011;29610;49.022;12.114;2022-08-19T09:50:37;29.70;;;13.77;;
18793;SDS011;29610;49.022;12.114;2022-08-19T09:53:17;26.93;;;13.10;;
18793;SDS011;29610;49.022;12.114;2022-08-19T09:55:51;23.03;;;11.73;;
18793;SDS011;29610;49.022;12.114;2022-08-19T09:58:21;24.87;;;12.03;;
18793;SDS011;29610;49.022;12.114;2022-08-19T10:00:53;25.90;;;12.50;;
18793;SDS011;29610;49.022;12.114;2022-08-19T10:03:23;23.40;;;11.50;;
18793;SDS011;29610;49.022;12.114;2022-08-19T10:05:56;22.20;;;11.57;;
18793;SDS011;29610;49.022;12.114;2022-08-19T10:08:40;22.53;;;11.23;;
18793;SDS011;29610;49.022;12.114;2022-08-19T10:11:16;22.50;;;11.53;;
18793;SDS011;29610;49.022;12.114;2022-08-19T10:14:03;24.23;;;10.50;;
18793;SDS011;29610;49.022;12.114;2022-08-19T10:16:33;23.63;;;11.80;;
18793;SDS011;29610;49.022;12.114;2022-08-19T10:19:05;22.57;;;11.67;;
18793;SDS011;29610;49.022;12.114;2022-08-19T10:21:35;21.27;;;11.03;;
18793;SDS011;29610;49.022;12.114;2022-08-19T10:24:06;23.33;;;11.63;;
18793;SDS011;29610;49.022;12.114;2022-08-19T10:26:35;21.40;;;10.50;;
18793;SDS011;29610;49.022;12.114;2022-08-19T10:29:09;23.93;;;12.27;;
18793;SDS011;29610;49.022;12.114;2022-08-19T10:31:38;23.83;;;11.53;;
18793;SDS011;29610;49.022;12.114;2022-08-19T10:34:27;24.07;;;11.90;;
18793;SDS011;29610;49.022;12.114;2022-08-19T10:36:57;20.67;;;10.50;;
18793;SDS011;29610;49.022;12.114;2022-08-19T10:39:27;23.10;;;11.57;;
18793;SDS011;29610;49.022;12.114;2022-08-19T10:42:06;23.77;;;11.20;;
18793;SDS011;29610;49.022;12.114;2022-08-19T10:44:38;21.87;;;11.37;;
18793;SDS011;29610;49.022;12.114;2022-08-19T10:47:07;22.87;;;11.37;;
18793;SDS011;29610;49.022;12.114;2022-08-19T10:49:52;21.00;;;11.47;;
18793;SDS011;29610;49.022;12.114;2022-08-19T10:52:39;22.67;;;10.37;;
18793;SDS011;29610;49.022;12.114;2022-08-19T10:55:16;24.10;;;12.20;;
18793;SDS011;29610;49.022;12.114;2022-08-19T10:58:09;23.80;;;12.30;;
18793;SDS011;29610;49.022;12.114;2022-08-19T11:00:41;22.67;;;12.00;;
18793;SDS011;29610;49.022;12.114;2022-08-19T11:03:11;23.03;;;12.93;;
18793;SDS011;29610;49.022;12.114;2022-08-19T11:05:39;23.13;;;12.67;;
18793;SDS011;29610;49.022;12.114;2022-08-19T11:08:08;24.10;;;11.20;;
18793;SDS011;29610;49.022;12.114;2022-08-19T11:10:50;25.03;;;12.53;;
18793;SDS011;29610;49.022;12.114;2022-08-19T11:13:24;22.73;;;12.13;;
18793;SDS011;29610;49.022;12.114;2022-08-19T11:15:58;27.50;;;12.67;;
18793;SDS011;29610;49.022;12.114;2022-08-19T11:18:34;21.97;;;11.33;;
18793;SDS011;29610;49.022;12.114;2022-08-19T11:21:07;28.53;;;14.73;;
18793;SDS011;29610;49.022;12.114;2022-08-19T11:23:40;23.93;;;13.17;;
18793;SDS011;29610;49.022;12.114;2022-08-19T11:26:09;24.57;;;12.23;;
18793;SDS011;29610;49.022;12.114;2022-08-19T11:28:39;26.37;;;13.67;;
18793;SDS011;29610;49.022;12.114;2022-08-19T11:31:12;26.20;;;13.60;;
18793;SDS011;29610;49.022;12.114;2022-08-19T11:33:43;23.93;;;12.60;;
18793;SDS011;29610;49.022;12.114;2022-08-19T11:36:13;27.03;;;13.40;;
18793;SDS011;29610;49.022;12.114;2022-08-19T11:38:44;25.23;;;14.13;;
18793;SDS011;29610;49.022;12.114;2022-08-19T11:41:15;24.50;;;12.80;;
18793;SDS011;29610;49.022;12.114;2022-08-19T11:43:46;24.80;;;13.87;;
18793;SDS011;29610;49.022;12.114;2022-08-19T11:46:16;27.83;;;13.80;;
18793;SDS011;29610;49.022;12.114;2022-08-19T11:48:45;24.43;;;14.13;;
18793;SDS011;29610;49.022;12.114;2022-08-19T11:51:16;29.30;;;14.53;;
18793;SDS011;29610;49.022;12.114;2022-08-19T11:53:48;33.60;;;15.83;;
18793;SDS011;29610;49.022;12.114;2022-08-19T11:56:17;29.20;;;16.00;;
18793;SDS011;29610;49.022;12.114;2022-08-19T11:58:47;28.50;;;16.77;;
18793;SDS011;29610;49.022;12.114;2022-08-19T12:01:18;29.67;;;16.57;;
18793;SDS011;29610;49.022;12.114;2022-08-19T12:03:50;29.37;;;16.40;;
18793;SDS011;29610;49.022;12.114;2022-08-19T12:06:22;27.70;;;15.77;;
18793;SDS011;29610;49.022;12.114;2022-08-19T12:08:55;32.37;;;19.27;;
18793;SDS011;29610;49.022;12.114;2022-08-19T12:11:26;32.17;;;17.60;;
18793;SDS011;29610;49.022;12.114;2022-08-19T12:13:59;38.67;;;18.60;;
18793;SDS011;29610;49.022;12.114;2022-08-19T12:16:30;35.07;;;19.23;;
18793;SDS011;29610;49.022;12.114;2022-08-19T12:26:13;42.07;;;22.63;;
18793;SDS011;29610;49.022;12.114;2022-08-19T12:28:42;36.23;;;20.93;;
18793;SDS011;29610;49.022;12.114;2022-08-19T12:31:12;38.33;;;21.67;;
18793;SDS011;29610;49.022;12.114;2022-08-19T12:33:43;37.90;;;22.23;;
18793;SDS011;29610;49.022;12.114;2022-08-19T12:36:12;44.33;;;23.70;;
18793;SDS011;29610;49.022;12.114;2022-08-19T12:38:44;41.40;;;22.80;;
18793;SDS011;29610;49.022;12.114;2022-08-19T12:41:14;42.70;;;22.80;;
18793;SDS011;29610;49.022;12.114;2022-08-19T12:43:44;38.90;;;23.70;;
18793;SDS011;29610;49.022;12.114;2022-08-19T12:46:15;44.10;;;24.60;;
18793;SDS011;29610;49.022;12.114;2022-08-19T12:48:52;40.93;;;22.80;;
18793;SDS011;29610;49.022;12.114;2022-08-19T12:51:21;40.03;;;23.73;;
18793;SDS011;29610;49.022;12.114;2022-08-19T12:53:51;37.97;;;23.10;;
18793;SDS011;29610;49.022;12.114;2022-08-19T12:56:20;40.30;;;23.00;;
18793;SDS011;29610;49.022;12.114;2022-08-19T12:58:49;37.87;;;21.97;;
18793;SDS011;29610;49.022;12.114;2022-08-19T13:01:18;41.03;;;22.47;;
18793;SDS011;29610;49.022;12.114;2022-08-19T13:03:49;32.67;;;20.17;;
18793;SDS011;29610;49.022;12.114;2022-08-19T13:06:19;34.17;;;20.63;;
18793;SDS011;29610;49.022;12.114;2022-08-19T13:08:48;33.67;;;19.80;;
18793;SDS011;29610;49.022;12.114;2022-08-19T13:11:18;32.07;;;20.00;;
18793;SDS011;29610;49.022;12.114;2022-08-19T13:13:51;33.33;;;18.33;;
18793;SDS011;29610;49.022;12.114;2022-08-19T13:16:21;34.90;;;17.70;;
18793;SDS011;29610;49.022;12.114;2022-08-19T13:18:49;28.70;;;18.13;;
18793;SDS011;29610;49.022;12.114;2022-08-19T13:21:20;31.00;;;18.53;;
18793;SDS011;29610;49.022;12.114;2022-08-19T13:23:51;32.10;;;18.40;;
18793;SDS011;29610;49.022;12.114;2022-08-19T13:26:21;33.30;;;19.53;;
18793;SDS011;29610;49.022;12.114;2022-08-19T13:28:49;30.10;;;18.10;;
18793;SDS011;29610;49.022;12.114;2022-08-19T13:31:36;31.63;;;17.50;;
18793;SDS011;29610;49.022;12.114;2022-08-19T13:34:45;29.40;;;18.10;;
18793;SDS011;29610;49.022;12.114;2022-08-19T13:37:14;34.77;;;20.27;;
18793;SDS011;29610;49.022;12.114;2022-08-19T13:39:42;36.27;;;21.00;;
18793;SDS011;29610;49.022;12.114;2022-08-19T13:42:11;34.80;;;19.40;;
18793;SDS011;29610;49.022;12.114;2022-08-19T13:44:40;32.00;;;19.77;;
18793;SDS011;29610;49.022;12.114;2022-08-19T13:47:09;35.97;;;20.43;;
18793;SDS011;29610;49.022;12.114;2022-08-19T13:49:39;34.20;;;20.73;;
18793;SDS011;29610;49.022;12.114;2022-08-19T13:52:09;45.10;;;21.97;;
18793;SDS011;29610;49.022;12.114;2022-08-19T13:54:37;34.47;;;20.83;;
18793;SDS011;29610;49.022;12.114;2022-08-19T13:57:06;36.50;;;20.50;;
18793;SDS011;29610;49.022;12.114;2022-08-19T13:59:34;30.57;;;18.83;;
18793;SDS011;29610;49.022;12.114;2022-08-19T14:02:02;33.70;;;18.13;;
18793;SDS011;29610;49.022;12.114;2022-08-19T14:04:31;36.60;;;17.57;;
18793;SDS011;29610;49.022;12.114;2022-08-19T14:07:00;29.93;;;17.60;;
18793;SDS011;29610;49.022;12.114;2022-08-19T14:09:31;28.00;;;17.07;;
18793;SDS011;29610;49.022;12.114;2022-08-19T14:11:59;29.30;;;16.03;;
18793;SDS011;29610;49.022;12.114;2022-08-19T14:14:28;27.33;;;15.57;;
18793;SDS011;29610;49.022;12.114;2022-08-19T14:16:56;28.60;;;16.40;;
18793;SDS011;29610;49.022;12.114;2022-08-19T14:19:25;28.87;;;17.13;;
18793;SDS011;29610;49.022;12.114;2022-08-19T14:21:55;33.73;;;19.30;;
18793;SDS011;29610;49.022;12.114;2022-08-19T14:24:25;29.53;;;16.27;;
18793;SDS011;29610;49.022;12.114;2022-08-19T14:26:55;27.30;;;14.93;;
18793;SDS011;29610;49.022;12.114;2022-08-19T14:29:25;25.70;;;14.23;;
18793;SDS011;29610;49.022;12.114;2022-08-19T14:32:00;25.97;;;14.63;;
18793;SDS011;29610;49.022;12.114;2022-08-19T14:34:30;27.93;;;14.83;;
18793;SDS011;29610;49.022;12.114;2022-08-19T14:37:00;28.43;;;15.90;;
18793;SDS011;29610;49.022;12.114;2022-08-19T14:39:34;24.57;;;13.40;;
18793;SDS011;29610;49.022;12.114;2022-08-19T14:42:08;24.10;;;12.60;;
18793;SDS011;29610;49.022;12.114;2022-08-19T14:44:48;26.07;;;14.10;;
18793;SDS011;29610;49.022;12.114;2022-08-19T14:47:17;26.00;;;13.27;;
18793;SDS011;29610;49.022;12.114;2022-08-19T14:49:48;23.67;;;12.83;;
18793;SDS011;29610;49.022;12.114;2022-08-19T14:52:18;24.80;;;13.13;;
18793;SDS011;29610;49.022;12.114;2022-08-19T14:54:51;21.60;;;10.47;;